Time;durP1;ratioP1;P1;durP2;ratioP2;P2;SDS_P1;SDS_P2;PMS_P1;PMS_P2;Temp;Humidity;BMP_temperature;BMP_pressure;BME280_temperature;BME280_humidity;BME280_pressure;Samples;Min_cycle;Max_cycle;Signal;HPM_P1;HPM_P2
2023/10/24 00:02:21;;;;;;;9.27;4.03;;;;;;;10.83;77.57;98947.34;4949189;28;20062;-49
2023/10/24 00:04:47;;;;;;;8.93;3.42;;;;;;;10.79;77.61;98939.66;4948202;28;20067;-50
2023/10/24 00:07:14;;;;;;;13.73;4.32;;;;;;;10.77;78.50;98938.84;4949754;28;20385;-48
2023/10/24 00:09:41;;;;;;;12.82;3.25;;;;;;;10.75;78.06;98944.94;4949222;28;20047;-46
2023/10/24 00:12:08;;;;;;;8.90;4.15;;;;;;;10.73;77.41;98941.50;4952565;28;20044;-47
2023/10/24 00:14:34;;;;;;;17.95;3.40;;;;;;;10.70;78.09;98942.44;4951823;28;20137;-52
2023/10/24 00:17:01;;;;;;;57.17;4.97;;;;;;;10.69;77.41;98938.16;4951079;28;20043;-44
2023/10/24 00:19:28;;;;;;;21.20;4.05;;;;;;;10.67;78.34;98933.00;4946039;28;20058;-51
2023/10/24 00:21:55;;;;;;;9.18;3.72;;;;;;;10.66;78.14;98935.63;4948714;28;20059;-42
2023/10/24 00:24:22;;;;;;;9.10;4.00;;;;;;;10.65;77.76;98933.91;4947511;28;20103;-43
2023/10/24 00:26:48;;;;;;;13.85;4.22;;;;;;;10.66;78.52;98935.63;4951855;28;20130;-51
2023/10/24 00:29:15;;;;;;;18.30;4.43;;;;;;;10.67;78.17;98937.31;4950453;28;20131;-44
2023/10/24 00:31:42;;;;;;;13.82;4.15;;;;;;;10.67;77.65;98921.78;4949694;28;20061;-45
2023/10/24 00:34:12;;;;;;;15.98;4.75;;;;;;;10.68;77.45;98923.50;4943717;28;20523;-51
2023/10/24 00:36:40;;;;;;;13.77;4.88;;;;;;;10.70;77.70;98926.06;4948822;28;20431;-45
2023/10/24 00:39:08;;;;;;;21.63;4.85;;;;;;;10.71;78.33;98925.16;4957713;28;20047;-44
2023/10/24 00:41:35;;;;;;;12.43;4.80;;;;;;;10.73;77.59;98926.84;4949665;28;20058;-42
2023/10/24 00:44:02;;;;;;;15.20;4.40;;;;;;;10.74;78.10;98920.75;4944109;28;20599;-51
2023/10/24 00:46:29;;;;;;;16.10;4.70;;;;;;;10.76;78.18;98926.78;4951604;28;20060;-51
2023/10/24 00:48:57;;;;;;;12.13;4.53;;;;;;;10.78;77.73;98924.16;4952058;28;20051;-51
2023/10/24 00:51:24;;;;;;;12.23;3.95;;;;;;;10.79;78.43;98911.19;4947451;28;20134;-45
2023/10/24 00:53:52;;;;;;;11.73;4.72;;;;;;;10.80;77.73;98912.88;4949459;28;20054;-44
2023/10/24 00:56:20;;;;;;;13.68;4.85;;;;;;;10.83;77.74;98911.09;4946078;28;20048;-48
2023/10/24 00:58:48;;;;;;;13.77;4.63;;;;;;;10.83;78.50;98911.09;4944436;29;20059;-49
2023/10/24 01:01:15;;;;;;;9.20;4.07;;;;;;;10.82;77.52;98905.06;4949065;28;20142;-52
2023/10/24 01:03:46;;;;;;;11.13;4.28;;;;;;;10.83;78.21;98905.91;4952677;28;20053;-51
2023/10/24 01:06:12;;;;;;;14.52;4.40;;;;;;;10.83;78.40;98903.31;4945124;28;20058;-48
2023/10/24 01:08:39;;;;;;;18.83;5.55;;;;;;;10.83;77.79;98899.00;4946765;28;20055;-47
2023/10/24 01:11:06;;;;;;;13.43;5.43;;;;;;;10.83;78.18;98887.78;4948986;28;20062;-49
2023/10/24 01:13:33;;;;;;;15.57;5.03;;;;;;;10.83;78.30;98886.03;4952063;28;20522;-50
2023/10/24 01:15:59;;;;;;;16.45;5.38;;;;;;;10.84;78.04;98887.75;4944216;29;20098;-46
2023/10/24 01:18:27;;;;;;;19.48;5.78;;;;;;;10.83;78.66;98882.59;4942662;28;20179;-50
2023/10/24 01:20:53;;;;;;;19.92;5.63;;;;;;;10.85;78.70;98888.59;4948500;28;20047;-48
2023/10/24 01:23:21;;;;;;;17.45;5.53;;;;;;;10.86;78.43;98891.16;4948638;28;20062;-50
2023/10/24 01:25:50;;;;;;;19.88;5.97;;;;;;;10.87;78.69;98884.22;4942170;28;20048;-50
2023/10/24 01:28:17;;;;;;;19.63;4.75;;;;;;;10.88;78.34;98888.53;4947450;28;20048;-51
2023/10/24 01:30:44;;;;;;;26.58;6.18;;;;;;;10.89;78.35;98885.91;4946787;29;20051;-47
2023/10/24 01:33:10;;;;;;;18.58;5.15;;;;;;;10.90;78.41;98876.38;4949207;28;20047;-48
2023/10/24 01:35:37;;;;;;;13.70;5.90;;;;;;;10.91;78.57;98868.59;4952888;28;20412;-50
2023/10/24 01:38:04;;;;;;;21.10;5.93;;;;;;;10.92;77.94;98864.25;4950444;28;20065;-48
2023/10/24 01:40:30;;;;;;;17.60;5.93;;;;;;;10.93;78.61;98866.81;4948806;28;20051;-46
2023/10/24 01:42:57;;;;;;;16.63;5.93;;;;;;;10.93;77.66;98865.97;4946024;29;20044;-44
2023/10/24 01:45:24;;;;;;;16.90;4.85;;;;;;;10.93;78.53;98860.78;4948669;28;20528;-54
2023/10/24 01:47:51;;;;;;;23.00;5.03;;;;;;;10.93;78.75;98853.00;4949656;28;20162;-52
2023/10/24 01:50:17;;;;;;;23.58;5.30;;;;;;;10.93;78.58;98840.06;4949728;28;20391;-50
2023/10/24 01:52:44;;;;;;;21.40;5.72;;;;;;;10.91;78.71;98839.25;4949089;28;20487;-47
2023/10/24 01:55:11;;;;;;;25.20;5.68;;;;;;;10.89;78.85;98839.28;4946643;28;20050;-55
2023/10/24 01:57:38;;;;;;;21.75;5.13;;;;;;;10.88;78.43;98842.75;4945054;28;20099;-48
2023/10/24 02:00:05;;;;;;;16.55;5.70;;;;;;;10.88;79.24;98837.56;4946013;28;20050;-52
2023/10/24 02:02:32;;;;;;;22.98;5.85;;;;;;;10.88;79.37;98831.56;4935787;28;20051;-46
2023/10/24 02:04:58;;;;;;;31.92;5.88;;;;;;;10.88;78.83;98837.56;4943148;28;20649;-48
2023/10/24 02:07:27;;;;;;;30.08;6.13;;;;;;;10.89;79.39;98835.84;4944554;28;20047;-53
2023/10/24 02:09:54;;;;;;;71.53;5.60;;;;;;;10.88;79.18;98837.56;4947163;28;20122;-45
2023/10/24 02:12:22;;;;;;;25.85;5.28;;;;;;;10.86;78.26;98829.00;4939070;29;20051;-50
2023/10/24 02:14:49;;;;;;;21.98;6.15;;;;;;;10.87;78.06;98835.88;4951319;28;20043;-50
2023/10/24 02:17:15;;;;;;;34.53;6.00;;;;;;;10.91;79.52;98836.66;4945400;28;20055;-49
2023/10/24 02:19:42;;;;;;;28.60;7.40;;;;;;;10.91;79.27;98831.47;4948847;28;20452;-45
2023/10/24 02:22:09;;;;;;;30.52;5.50;;;;;;;10.91;78.61;98832.31;4944648;28;20047;-43
2023/10/24 02:24:36;;;;;;;28.02;6.03;;;;;;;10.91;78.64;98831.47;4941078;29;20582;-50
2023/10/24 02:27:02;;;;;;;34.05;7.40;;;;;;;10.93;79.11;98834.88;4947883;28;20042;-48
2023/10/24 02:29:33;;;;;;;23.42;6.03;;;;;;;10.94;78.29;98823.63;4947504;28;20056;-43
2023/10/24 02:32:01;;;;;;;22.45;6.25;;;;;;;10.95;78.22;98820.16;4942153;28;20049;-47
2023/10/24 02:34:28;;;;;;;18.60;6.07;;;;;;;10.95;78.50;98820.16;4941937;28;20050;-45
2023/10/24 02:36:55;;;;;;;23.40;6.40;;;;;;;10.96;79.26;98814.09;4945339;28;20051;-49
2023/10/24 02:39:22;;;;;;;17.38;6.15;;;;;;;10.95;79.04;98809.78;4946674;28;20111;-44
2023/10/24 02:41:48;;;;;;;19.48;6.70;;;;;;;10.96;78.14;98806.31;4942988;28;20066;-48
2023/10/24 02:44:15;;;;;;;21.67;6.32;;;;;;;10.96;78.03;98798.53;4944803;28;20051;-51
2023/10/24 02:46:42;;;;;;;25.55;6.25;;;;;;;10.97;78.63;98804.59;4946462;28;20047;-54
2023/10/24 02:49:08;;;;;;;85.95;6.95;;;;;;;10.96;78.65;98798.53;4949750;28;20074;-45
2023/10/24 02:51:36;;;;;;;34.25;6.57;;;;;;;10.94;78.57;98795.13;4943769;28;20063;-49
2023/10/24 02:54:03;;;;;;;25.70;6.38;;;;;;;10.93;79.23;98803.78;4948082;28;20138;-48
2023/10/24 02:56:29;;;;;;;26.25;6.30;;;;;;;10.93;78.43;98791.69;4944432;28;20047;-46
2023/10/24 02:58:56;;;;;;;22.02;7.55;;;;;;;10.95;78.54;98798.56;4945727;28;20472;-48
2023/10/24 03:01:23;;;;;;;18.67;6.50;;;;;;;10.95;79.45;98789.06;4944619;28;20492;-51
2023/10/24 03:03:50;;;;;;;20.35;6.32;;;;;;;10.95;79.33;98778.72;4950112;28;20050;-47
2023/10/24 03:06:18;;;;;;;21.40;6.70;;;;;;;10.95;79.60;98773.53;4947342;28;20084;-54
2023/10/24 03:08:45;;;;;;;33.28;6.75;;;;;;;10.95;78.58;98776.13;4947072;28;20059;-50
2023/10/24 03:11:20;;;;;;;27.20;7.03;;;;;;;10.94;78.70;98782.16;4945927;28;20051;-52
2023/10/24 03:13:47;;;;;;;35.55;7.10;;;;;;;10.94;79.09;98776.97;4946958;28;20047;-45
2023/10/24 03:16:13;;;;;;;25.92;6.78;;;;;;;10.94;78.93;98774.41;4948797;28;20078;-47
2023/10/24 03:18:40;;;;;;;26.40;6.13;;;;;;;10.92;79.65;98771.00;4947383;28;20078;-45
2023/10/24 03:21:07;;;;;;;30.50;6.65;;;;;;;10.92;79.46;98776.19;4947229;28;20508;-47
2023/10/24 03:23:34;;;;;;;23.25;8.27;;;;;;;10.92;79.73;98776.19;4947839;28;20456;-46
2023/10/24 03:26:04;;;;;;;21.27;6.25;;;;;;;10.92;79.35;98771.00;4946328;28;20070;-52
2023/10/24 03:28:31;;;;;;;26.88;6.22;;;;;;;10.93;80.13;98775.28;4945250;28;20110;-47
2023/10/24 03:31:01;;;;;;;24.17;6.65;;;;;;;10.93;79.48;98775.28;4945762;28;20043;-51
2023/10/24 03:33:28;;;;;;;27.35;7.03;;;;;;;10.95;80.09;98775.25;4952142;28;20657;-47
2023/10/24 03:35:54;;;;;;;24.08;6.78;;;;;;;10.94;79.92;98774.41;4947086;28;20111;-48
2023/10/24 03:38:21;;;;;;;26.20;6.63;;;;;;;10.95;80.07;98770.06;4951092;28;20070;-48
2023/10/24 03:40:49;;;;;;;18.38;6.60;;;;;;;10.97;79.59;98771.72;4948297;28;20493;-53
2023/10/24 03:43:16;;;;;;;22.00;6.05;;;;;;;10.97;79.52;98771.72;4946685;28;20109;-54
2023/10/24 03:45:43;;;;;;;23.58;6.82;;;;;;;10.96;79.41;98767.44;4948520;28;20138;-48
2023/10/24 03:48:11;;;;;;;18.70;5.85;;;;;;;10.96;79.23;98767.44;4951751;28;20548;-47
2023/10/24 03:50:39;;;;;;;19.02;6.15;;;;;;;10.96;79.33;98767.44;4952196;28;20051;-48
2023/10/24 03:53:06;;;;;;;19.33;6.03;;;;;;;10.96;78.91;98766.59;4933820;29;20074;-51
2023/10/24 03:55:34;;;;;;;33.63;6.60;;;;;;;10.94;79.81;98764.03;4948573;28;20630;-50
2023/10/24 03:58:01;;;;;;;16.45;5.55;;;;;;;10.95;79.41;98773.53;4945110;28;20562;-48
2023/10/24 04:00:27;;;;;;;20.27;6.50;;;;;;;10.95;79.65;98775.25;4950475;28;20039;-52
2023/10/24 04:02:55;;;;;;;24.60;7.05;;;;;;;10.95;79.65;98770.06;4950576;28;20189;-52
2023/10/24 04:05:22;;;;;;;23.25;6.68;;;;;;;10.96;79.83;98776.94;4951046;28;20110;-48
2023/10/24 04:07:49;;;;;;;29.05;6.82;;;;;;;10.95;79.70;98770.94;4955704;28;20051;-47
2023/10/24 04:10:16;;;;;;;25.42;6.50;;;;;;;10.95;80.21;98767.47;4950247;28;20058;-51
2023/10/24 04:12:43;;;;;;;25.23;6.72;;;;;;;10.95;79.68;98765.75;4948202;28;20452;-45
2023/10/24 04:15:10;;;;;;;24.55;8.07;;;;;;;10.96;80.00;98767.44;4951430;28;20487;-48
2023/10/24 04:17:37;;;;;;;29.45;8.73;;;;;;;10.95;79.03;98768.34;4949847;28;20062;-51
2023/10/24 04:20:06;;;;;;;31.35;6.97;;;;;;;10.96;79.08;98767.44;4950868;28;20039;-47
2023/10/24 04:22:33;;;;;;;26.38;6.93;;;;;;;10.95;79.35;98763.16;4952326;28;20055;-53
2023/10/24 04:24:59;;;;;;;30.20;6.63;;;;;;;10.96;79.87;98767.44;4952655;28;20086;-48
2023/10/24 04:27:26;;;;;;;27.67;7.50;;;;;;;10.94;80.38;98761.44;4951361;28;20059;-52
2023/10/24 04:29:53;;;;;;;29.92;7.60;;;;;;;10.93;79.87;98762.34;4949437;28;20055;-47
2023/10/24 04:32:20;;;;;;;26.15;7.00;;;;;;;10.93;79.61;98757.16;4951033;28;20085;-49
2023/10/24 04:34:51;;;;;;;26.67;7.38;;;;;;;10.93;80.04;98757.16;4950350;29;20051;-45
2023/10/24 04:37:18;;;;;;;29.73;7.15;;;;;;;10.93;79.58;98757.16;4949351;28;20051;-48
2023/10/24 04:39:45;;;;;;;28.40;7.20;;;;;;;10.94;80.16;98748.50;4950448;29;20043;-51
2023/10/24 04:42:11;;;;;;;30.10;11.35;;;;;;;10.96;80.10;98756.22;4949199;28;20618;-52
2023/10/24 04:44:38;;;;;;;27.27;7.20;;;;;;;10.95;80.68;98750.22;4948313;28;20054;-47
2023/10/24 04:47:05;;;;;;;24.92;7.50;;;;;;;10.95;79.26;98755.38;4945938;28;20051;-51
2023/10/24 04:49:32;;;;;;;27.58;7.18;;;;;;;10.96;79.27;98762.25;4949619;28;20075;-47
2023/10/24 04:51:59;;;;;;;21.55;6.70;;;;;;;10.95;80.33;98750.22;4948719;28;20143;-52
2023/10/24 04:54:25;;;;;;;25.77;7.18;;;;;;;10.95;79.24;98755.38;4943895;28;20044;-48
2023/10/24 04:56:52;;;;;;;26.52;7.20;;;;;;;10.93;80.04;98745.06;4947953;28;20095;-48
2023/10/24 04:59:19;;;;;;;25.75;7.15;;;;;;;10.93;80.27;98746.78;4948579;28;20110;-48
2023/10/24 05:01:45;;;;;;;25.42;7.72;;;;;;;10.92;80.35;98734.75;4945342;28;20051;-51
2023/10/24 05:04:12;;;;;;;30.55;7.88;;;;;;;10.92;79.43;98726.97;4947825;28;20058;-45
2023/10/24 05:06:39;;;;;;;21.40;7.75;;;;;;;10.92;80.22;98729.56;4948078;28;20055;-49
2023/10/24 05:09:06;;;;;;;30.58;8.27;;;;;;;10.92;79.31;98734.75;4944152;28;20528;-57
2023/10/24 05:11:33;;;;;;;24.23;7.00;;;;;;;10.91;79.48;98728.69;4948790;28;20686;-47
2023/10/24 05:13:59;;;;;;;22.83;6.90;;;;;;;10.91;79.25;98727.88;4948419;28;20043;-47
2023/10/24 05:16:26;;;;;;;23.15;7.15;;;;;;;10.91;78.99;98722.69;4949134;28;20066;-45
2023/10/24 05:18:53;;;;;;;29.88;8.00;;;;;;;10.90;80.26;98721.81;4948056;28;20083;-53
2023/10/24 05:21:19;;;;;;;24.75;7.07;;;;;;;10.90;79.23;98721.81;4949092;28;20055;-47
2023/10/24 05:23:46;;;;;;;24.52;7.47;;;;;;;10.90;79.74;98720.97;4949393;28;20043;-48
2023/10/24 05:26:13;;;;;;;34.22;7.88;;;;;;;10.89;79.37;98730.50;4945610;28;20619;-48
2023/10/24 05:28:39;;;;;;;29.42;7.20;;;;;;;10.88;79.00;98727.94;4947570;28;20640;-54
2023/10/24 05:31:07;;;;;;;26.13;8.90;;;;;;;10.90;79.66;98736.50;4945362;28;20478;-44
2023/10/24 05:33:35;;;;;;;29.20;7.93;;;;;;;10.89;79.80;98738.25;4944264;28;20123;-50
2023/10/24 05:36:03;;;;;;;33.10;7.40;;;;;;;10.88;80.03;98743.47;4946553;28;20508;-47
2023/10/24 05:38:32;;;;;;;27.90;7.30;;;;;;;10.88;78.75;98738.28;4943828;28;20201;-45
2023/10/24 05:41:00;;;;;;;30.90;8.23;;;;;;;10.89;80.32;98745.16;4932199;29;20065;-51
2023/10/24 05:43:27;;;;;;;96.07;8.77;;;;;;;10.89;79.79;98746.03;4944824;28;20122;-48
2023/10/24 05:45:54;;;;;;;111.55;8.45;;;;;;;10.90;79.70;98741.69;4948125;29;20408;-47
2023/10/24 05:48:22;;;;;;;48.05;8.02;;;;;;;10.89;79.56;98737.41;4929528;28;20051;-47
2023/10/24 05:50:48;;;;;;;61.53;7.70;;;;;;;10.89;79.63;98742.59;4925499;29;20138;-49
2023/10/24 05:53:15;;;;;;;57.05;8.50;;;;;;;10.89;80.15;98734.81;4939415;28;20052;-48
2023/10/24 05:55:42;;;;;;;38.67;7.35;;;;;;;10.88;78.80;98738.28;4948813;28;20058;-55
2023/10/24 05:58:08;;;;;;;35.67;7.63;;;;;;;10.88;79.80;98733.13;4942965;28;20556;-45
2023/10/24 06:00:35;;;;;;;81.22;8.25;;;;;;;10.87;79.02;98731.41;4944710;28;20055;-49
2023/10/24 06:03:02;;;;;;;98.00;8.18;;;;;;;10.87;79.79;98723.63;4946115;28;20130;-51
2023/10/24 06:05:29;;;;;;;84.63;8.20;;;;;;;10.86;80.25;98719.34;4944261;28;20078;-47
2023/10/24 06:07:56;;;;;;;75.07;9.23;;;;;;;10.86;79.60;98714.16;4943465;28;20044;-45
2023/10/24 06:10:23;;;;;;;97.68;8.65;;;;;;;10.87;79.01;98708.09;4944566;28;20075;-53
2023/10/24 06:12:49;;;;;;;26.35;7.15;;;;;;;10.87;79.08;98715.84;4959148;28;20134;-46
2023/10/24 06:15:16;;;;;;;28.35;6.32;;;;;;;10.88;79.00;98718.41;4943652;28;20055;-47
2023/10/24 06:17:43;;;;;;;67.65;8.98;;;;;;;10.88;79.24;98710.63;4941233;28;20047;-49
2023/10/24 06:20:10;;;;;;;49.00;7.90;;;;;;;10.87;79.71;98711.53;4944775;28;20054;-52
2023/10/24 06:22:36;;;;;;;80.05;7.32;;;;;;;10.87;79.81;98705.50;4941689;28;20059;-46
2023/10/24 06:25:03;;;;;;;22.48;6.20;;;;;;;10.86;80.21;98698.63;4940299;28;20154;-45
2023/10/24 06:27:30;;;;;;;26.77;6.75;;;;;;;10.85;79.91;98686.56;4942679;28;20054;-47
2023/10/24 06:29:57;;;;;;;46.75;7.32;;;;;;;10.85;79.91;98689.16;4946793;28;20051;-47
2023/10/24 06:32:26;;;;;;;122.28;9.05;;;;;;;10.86;79.93;98683.06;4943523;28;20177;-53
2023/10/24 06:34:52;;;;;;;109.20;8.75;;;;;;;10.85;79.14;98687.44;4946775;28;20107;-45
2023/10/24 06:37:19;;;;;;;127.78;8.75;;;;;;;10.84;78.99;98695.22;4946589;28;20049;-43
2023/10/24 06:39:47;;;;;;;116.20;8.43;;;;;;;10.82;79.10;98694.41;4944577;29;20074;-46
2023/10/24 06:42:13;;;;;;;135.23;8.20;;;;;;;10.82;79.23;98697.00;4943063;28;20055;-45
2023/10/24 06:44:40;;;;;;;157.10;9.13;;;;;;;10.79;79.30;98697.94;4945681;28;20055;-49
2023/10/24 06:47:06;;;;;;;120.25;7.65;;;;;;;10.78;79.44;98706.59;4945530;28;20681;-46
2023/10/24 06:49:33;;;;;;;80.93;7.43;;;;;;;10.76;79.89;98704.03;4943287;28;20078;-54
2023/10/24 06:52:00;;;;;;;44.58;6.93;;;;;;;10.74;79.97;98704.97;4943812;28;20143;-47
2023/10/24 06:54:26;;;;;;;75.03;7.32;;;;;;;10.73;79.77;98704.13;4941455;28;20047;-45
2023/10/24 06:56:54;;;;;;;84.22;8.18;;;;;;;10.73;79.75;98709.28;4946670;28;20059;-48
2023/10/24 06:59:20;;;;;;;59.55;7.78;;;;;;;10.74;79.75;98699.81;4942018;28;20105;-47
2023/10/24 07:01:48;;;;;;;44.70;7.55;;;;;;;10.74;79.85;98705.81;4944060;28;20043;-48
2023/10/24 07:04:14;;;;;;;24.00;7.60;;;;;;;10.77;79.86;98705.75;4944736;28;20392;-43
2023/10/24 07:06:42;;;;;;;33.47;7.63;;;;;;;10.76;79.31;98698.88;4948650;28;20070;-45
2023/10/24 07:09:09;;;;;;;76.38;8.10;;;;;;;10.78;79.51;98702.25;4949247;28;20051;-50
2023/10/24 07:11:36;;;;;;;91.50;9.07;;;;;;;10.78;80.21;98689.31;4944080;28;20753;-51
2023/10/24 07:14:03;;;;;;;64.15;7.13;;;;;;;10.80;79.12;98697.03;4945518;28;20148;-44
2023/10/24 07:16:30;;;;;;;72.32;8.60;;;;;;;10.79;79.42;98693.63;4944083;28;20055;-53
2023/10/24 07:18:57;;;;;;;101.00;8.05;;;;;;;10.79;79.16;98690.16;4950683;28;20055;-48
2023/10/24 07:21:23;;;;;;;59.58;6.90;;;;;;;10.78;79.73;98699.66;4949518;28;20051;-45
2023/10/24 07:23:50;;;;;;;74.65;8.20;;;;;;;10.80;80.14;98694.44;4944875;28;20055;-44
2023/10/24 07:26:18;;;;;;;46.97;7.50;;;;;;;10.80;80.04;98695.31;4949533;28;20142;-54
2023/10/24 07:28:45;;;;;;;31.60;6.75;;;;;;;10.83;79.31;98693.50;4948020;28;20394;-54
2023/10/24 07:31:12;;;;;;;37.92;7.70;;;;;;;10.84;80.06;98684.88;4943579;28;20063;-50
2023/10/24 07:33:42;;;;;;;44.05;6.60;;;;;;;10.87;80.35;98696.00;4942059;28;20060;-50
2023/10/24 07:36:09;;;;;;;37.55;7.32;;;;;;;10.87;79.80;98695.13;4945291;28;20429;-46
2023/10/24 07:38:35;;;;;;;19.17;5.63;;;;;;;10.88;79.02;98691.66;4945765;28;20047;-43
2023/10/24 07:41:03;;;;;;;37.53;6.50;;;;;;;10.90;79.92;98695.06;4947195;28;20078;-52
2023/10/24 07:43:30;;;;;;;34.92;6.55;;;;;;;10.89;79.45;98694.22;4951003;28;20504;-49
2023/10/24 07:45:57;;;;;;;47.83;7.45;;;;;;;10.90;79.18;98695.06;4952522;28;20483;-46
2023/10/24 07:48:24;;;;;;;34.13;6.40;;;;;;;10.89;79.42;98688.19;4950295;28;20047;-50
2023/10/24 07:50:53;;;;;;;24.05;5.85;;;;;;;10.89;79.29;98693.38;4947543;28;20058;-48
2023/10/24 07:53:21;;;;;;;25.58;6.18;;;;;;;10.90;79.63;98692.47;4961083;28;20052;-51
2023/10/24 07:55:47;;;;;;;25.42;7.07;;;;;;;10.91;79.59;98691.59;4948633;28;20404;-49
2023/10/24 07:58:18;;;;;;;20.08;6.80;;;;;;;10.92;79.08;98682.94;4946140;28;20078;-42
2023/10/24 08:00:46;;;;;;;27.33;6.85;;;;;;;10.93;79.74;98692.41;4946262;28;20607;-45
2023/10/24 08:03:13;;;;;;;54.08;7.22;;;;;;;10.91;79.90;98679.47;4943738;28;20167;-52
2023/10/24 08:05:41;;;;;;;45.90;6.65;;;;;;;10.92;78.72;98688.13;4943357;28;20051;-50
2023/10/24 08:08:08;;;;;;;57.78;6.50;;;;;;;10.91;79.76;98683.81;4947199;28;20055;-50
2023/10/24 08:10:35;;;;;;;78.28;7.50;;;;;;;10.93;79.10;98687.22;4944664;29;20055;-49
2023/10/24 08:13:01;;;;;;;65.82;7.70;;;;;;;10.94;79.18;98691.50;4961372;28;20493;-48
2023/10/24 08:15:28;;;;;;;61.65;6.80;;;;;;;10.97;79.63;98695.78;4947793;28;20043;-51
2023/10/24 08:17:55;;;;;;;53.22;6.45;;;;;;;10.98;78.98;98695.69;4946961;28;20063;-50
2023/10/24 08:20:22;;;;;;;32.70;6.80;;;;;;;11.00;79.55;98690.47;4948873;28;20054;-51
2023/10/24 08:22:51;;;;;;;25.83;6.88;;;;;;;11.04;78.95;98686.91;4942217;28;20039;-49
2023/10/24 08:25:17;;;;;;;41.38;7.40;;;;;;;11.07;79.08;98683.44;4949008;28;20485;-45
2023/10/24 08:27:45;;;;;;;39.20;6.50;;;;;;;11.10;79.63;98681.59;4946678;28;20054;-45
2023/10/24 08:30:12;;;;;;;23.85;7.03;;;;;;;11.11;79.74;98691.06;4938283;28;20055;-45
2023/10/24 08:32:39;;;;;;;19.00;6.47;;;;;;;11.14;79.71;98687.53;4946716;28;20055;-48
2023/10/24 08:35:06;;;;;;;19.23;6.13;;;;;;;11.15;79.88;98697.03;4949855;28;20047;-50
2023/10/24 08:37:34;;;;;;;21.55;6.78;;;;;;;11.18;80.31;98696.94;4946989;28;20051;-52
2023/10/24 08:40:02;;;;;;;19.27;6.10;;;;;;;11.22;79.98;98701.16;4947558;28;20061;-42
2023/10/24 08:42:30;;;;;;;19.95;6.55;;;;;;;11.25;79.58;98701.03;4942774;28;20079;-51
2023/10/24 08:44:59;;;;;;;19.38;6.35;;;;;;;11.31;80.05;98695.69;4946493;28;20055;-54
2023/10/24 08:47:28;;;;;;;20.08;6.13;;;;;;;11.39;79.00;98697.25;4947031;28;20045;-53
2023/10/24 08:49:56;;;;;;;24.00;6.07;;;;;;;11.44;79.79;98705.72;4945763;28;20051;-49
2023/10/24 08:52:23;;;;;;;26.20;7.32;;;;;;;11.49;79.97;98706.47;4940853;28;20497;-48
2023/10/24 08:54:59;;;;;;;24.13;7.30;;;;;;;11.55;79.89;98703.69;4945639;28;20039;-52
2023/10/24 08:57:30;;;;;;;29.55;8.18;;;;;;;11.58;78.84;98710.50;4944288;28;20051;-51
2023/10/24 08:59:58;;;;;;;26.00;8.52;;;;;;;11.60;79.38;98719.13;4940620;28;20563;-47
2023/10/24 09:02:28;;;;;;;23.65;8.57;;;;;;;11.62;79.74;98719.06;4947490;28;20472;-46
2023/10/24 09:04:54;;;;;;;28.20;7.18;;;;;;;11.63;79.63;98715.59;4947524;28;20047;-42
2023/10/24 09:07:22;;;;;;;24.65;7.80;;;;;;;11.63;80.05;98718.19;4945818;28;20083;-50
2023/10/24 09:09:48;;;;;;;27.05;8.02;;;;;;;11.63;79.94;98711.25;4940662;29;20059;-50
2023/10/24 09:12:15;;;;;;;25.95;8.43;;;;;;;11.67;80.18;98717.19;4948217;28;20053;-54
2023/10/24 09:14:47;;;;;;;26.30;7.80;;;;;;;11.69;79.52;98715.41;4944015;28;20039;-54
2023/10/24 09:17:20;;;;;;;25.83;7.65;;;;;;;11.71;80.11;98716.22;4947753;28;20597;-52
2023/10/24 09:19:48;;;;;;;22.15;7.53;;;;;;;11.72;80.36;98719.66;4944917;28;20106;-50
2023/10/24 09:22:16;;;;;;;23.90;8.07;;;;;;;11.72;78.84;98725.69;4947152;28;20051;-45
2023/10/24 09:24:45;;;;;;;18.27;6.97;;;;;;;11.72;79.67;98725.69;4947710;28;20066;-50
2023/10/24 09:27:15;;;;;;;19.25;6.53;;;;;;;11.70;79.68;98727.47;4941231;28;20169;-47
2023/10/24 09:29:42;;;;;;;20.52;6.30;;;;;;;11.70;79.92;98724.88;4942947;28;20575;-45
2023/10/24 09:32:17;;;;;;;23.48;7.15;;;;;;;11.70;79.43;98717.09;4947651;28;20125;-54
2023/10/24 09:34:47;;;;;;;20.15;6.38;;;;;;;11.73;79.07;98716.16;4948308;28;20058;-48
2023/10/24 09:37:14;;;;;;;27.45;7.25;;;;;;;11.73;79.49;98714.44;4945291;28;20139;-46
2023/10/24 09:42:51;;;;;;;15.32;6.28;;;;;;;11.71;78.76;98703.25;5105289;27;20433;-51
2023/10/24 09:45:18;;;;;;;21.20;6.68;;;;;;;11.68;79.67;98704.19;5021909;28;20045;-48
2023/10/24 09:47:46;;;;;;;20.13;7.57;;;;;;;11.68;79.40;98709.38;4999700;28;20045;-49
2023/10/24 09:50:14;;;;;;;18.88;6.85;;;;;;;11.69;78.69;98692.06;5000124;28;20077;-49
2023/10/24 09:52:41;;;;;;;23.05;7.80;;;;;;;11.69;78.38;98699.84;4997875;28;20513;-49
2023/10/24 09:55:09;;;;;;;20.55;8.25;;;;;;;11.71;78.76;98703.25;4997841;28;20061;-51
2023/10/24 09:57:38;;;;;;;22.63;7.65;;;;;;;11.74;78.75;98702.28;4999139;28;20515;-52
2023/10/24 10:00:10;;;;;;;20.45;7.35;;;;;;;11.74;78.46;98700.56;4999607;28;20052;-47
2023/10/24 10:02:42;;;;;;;;;;;;;;;11.66;78.51;98694.75;5002088;28;20053;-46
2023/10/24 10:05:09;;;;;;;17.92;6.68;;;;;;;11.76;79.65;98692.75;5000649;28;19929;-46
2023/10/24 10:07:39;;;;;;;19.25;7.32;;;;;;;11.78;78.99;98689.19;5002359;28;20064;-52
2023/10/24 10:10:10;;;;;;;16.52;6.80;;;;;;;11.81;78.52;98689.13;5008527;28;20049;-50
2023/10/24 10:12:39;;;;;;;22.33;8.15;;;;;;;11.86;79.30;98695.91;5007263;28;20061;-49
2023/10/24 10:15:27;;;;;;;19.85;7.93;;;;;;;11.85;79.45;98694.22;5008017;28;20041;-46
2023/10/24 10:18:10;;;;;;;21.17;8.68;;;;;;;11.89;79.54;98690.63;5011545;28;20141;-44
2023/10/24 10:20:52;;;;;;;23.45;8.73;;;;;;;11.90;78.64;98692.31;5006661;28;20129;-51
2023/10/24 10:26:50;;;;;;;22.42;10.10;;;;;;;11.98;79.01;98685.16;5095955;27;20403;-54
2023/10/24 10:32:35;;;;;;;18.25;6.32;;;;;;;12.13;78.34;98683.03;5092403;27;20428;-54
2023/10/24 10:35:46;;;;;;;15.70;6.53;;;;;;;12.13;79.15;98688.22;5032715;28;20633;-51
2023/10/24 10:38:13;;;;;;;14.05;6.15;;;;;;;12.19;78.30;98675.03;5029799;28;20056;-48
2023/10/24 10:40:40;;;;;;;14.52;6.00;;;;;;;12.23;78.38;98683.59;5031464;28;20050;-50
2023/10/24 10:43:08;;;;;;;16.15;6.53;;;;;;;12.27;78.34;98680.84;5027229;28;20095;-49
2023/10/24 10:45:34;;;;;;;23.55;9.60;;;;;;;12.32;79.31;98675.50;5033771;28;20144;-53
2023/10/24 10:48:04;;;;;;;21.83;9.43;;;;;;;12.40;79.06;98680.44;5032742;28;20499;-56
2023/10/24 10:50:32;;;;;;;;;;;;;;;12.36;78.70;98684.03;5036555;28;20045;-43
2023/10/24 10:56:04;;;;;;;19.30;7.35;;;;;;;12.61;77.89;98678.91;5104639;27;20501;-54
2023/10/24 11:04:21;;;;;;;15.27;7.03;;;;;;;12.82;78.71;98682.53;5108332;27;20992;-46
2023/10/24 11:06:57;;;;;;;13.38;5.97;;;;;;;12.82;78.15;98685.13;5032391;28;20056;-51
2023/10/24 11:09:32;;;;;;;16.80;6.57;;;;;;;12.86;77.39;98683.25;5037501;28;20132;-48
2023/10/24 11:18:14;;;;;;;11.43;4.70;;;;;;;13.09;77.63;98674.69;5071300;27;20830;-45
2023/10/24 11:20:41;;;;;;;11.00;5.40;;;;;;;13.15;77.21;98677.94;5017048;28;20494;-45
2023/10/24 11:23:08;;;;;;;10.63;4.78;;;;;;;13.21;77.31;98672.53;5037493;28;20041;-47
2023/10/24 11:25:35;;;;;;;14.02;4.90;;;;;;;13.28;77.67;98674.03;5037513;28;20046;-48
2023/10/24 11:28:09;;;;;;;10.70;4.50;;;;;;;13.34;76.67;98671.19;5042298;28;20049;-50
2023/10/24 11:30:36;;;;;;;9.63;4.28;;;;;;;13.41;76.67;98668.38;5040242;28;20049;-47
2023/10/24 11:33:03;;;;;;;10.63;5.30;;;;;;;13.47;76.60;98673.31;5039550;28;20057;-45
2023/10/24 11:35:29;;;;;;;10.88;4.47;;;;;;;13.55;76.28;98675.69;5041331;28;20099;-48
2023/10/24 11:37:56;;;;;;;10.45;5.18;;;;;;;13.59;75.93;98667.72;5037541;28;20046;-51
2023/10/24 11:40:23;;;;;;;12.38;5.10;;;;;;;13.65;75.61;98668.38;5038375;28;20505;-47
2023/10/24 11:42:49;;;;;;;9.25;4.05;;;;;;;13.73;76.16;98666.34;5039335;28;20064;-48
2023/10/24 11:45:16;;;;;;;9.07;4.22;;;;;;;13.78;76.43;98672.22;5040298;28;20705;-48
2023/10/24 11:47:43;;;;;;;9.15;4.15;;;;;;;13.82;75.79;98665.16;5035089;28;20128;-49
2023/10/24 11:50:13;;;;;;;8.98;3.40;;;;;;;13.90;75.72;98675.25;5033220;28;20049;-47
2023/10/24 11:52:39;;;;;;;6.57;3.13;;;;;;;13.92;75.10;98669.09;5034459;28;20513;-44
2023/10/24 11:55:07;;;;;;;6.78;3.38;;;;;;;13.93;75.31;98667.34;5034481;28;20073;-53